Time;durP1;ratioP1;P1;durP2;ratioP2;P2;SDS_P1;SDS_P2;PMS_P1;PMS_P2;Temp;Humidity;BMP_temperature;BMP_pressure;BME280_temperature;BME280_humidity;BME280_pressure;Samples;Min_cycle;Max_cycle;Signal;HPM_P1;HPM_P2
2022/03/12 00:01:17;;;;;;;3.10;2.57;;;3.00;48.10;;;;;;5070530;28;20390;-79
2022/03/12 00:04:01;;;;;;;2.23;2.03;;;3.10;47.70;;;;;;5069828;28;21005;-80
2022/03/12 00:06:46;;;;;;;3.73;2.60;;;2.90;46.80;;;;;;5068217;28;20470;-79
2022/03/12 00:09:31;;;;;;;2.90;2.70;;;2.90;46.70;;;;;;5068206;28;20390;-81
2022/03/12 00:12:15;;;;;;;5.00;2.50;;;2.80;46.30;;;;;;5066863;28;20436;-80
2022/03/12 00:15:03;;;;;;;9.20;3.47;;;2.80;46.50;;;;;;5068217;28;20513;-81
2022/03/12 00:17:48;;;;;;;3.30;3.00;;;2.90;46.80;;;;;;5070652;28;20401;-79
2022/03/12 00:20:34;;;;;;;3.77;2.87;;;2.90;46.20;;;;;;5070809;28;20436;-80
2022/03/12 00:23:21;;;;;;;2.70;2.50;;;3.00;47.00;;;;;;5069332;28;20878;-79
2022/03/12 00:26:06;;;;;;;2.63;2.43;;;2.90;46.30;;;;;;5068542;28;20405;-81
2022/03/12 00:28:54;;;;;;;5.03;3.03;;;2.80;46.20;;;;;;5065511;28;20390;-79
2022/03/12 00:31:38;;;;;;;5.13;2.70;;;2.80;46.30;;;;;;5064860;28;20414;-80
2022/03/12 00:34:23;;;;;;;2.60;2.40;;;2.60;46.10;;;;;;5061881;28;20386;-80
2022/03/12 00:37:08;;;;;;;3.70;2.63;;;2.60;45.90;;;;;;5048186;28;20448;-81
2022/03/12 00:39:53;;;;;;;5.33;3.77;;;2.70;46.40;;;;;;5063711;28;20802;-80
2022/03/12 00:42:37;;;;;;;4.00;3.13;;;2.80;48.10;;;;;;5063468;28;20401;-80
2022/03/12 00:45:22;;;;;;;2.53;2.33;;;2.70;47.70;;;;;;5063761;28;20442;-80
2022/03/12 00:48:07;;;;;;;3.53;3.17;;;2.50;52.00;;;;;;5063768;28;20425;-80
2022/03/12 00:50:52;;;;;;;8.67;2.87;;;2.40;50.00;;;;;;5070208;28;20443;-78
2022/03/12 00:53:39;;;;;;;5.60;3.10;;;2.50;50.50;;;;;;5072864;28;20386;-78
2022/03/12 00:56:23;;;;;;;4.23;3.37;;;2.40;49.90;;;;;;5071904;28;20421;-78
2022/03/12 00:59:08;;;;;;;3.43;2.50;;;2.50;50.00;;;;;;5063292;28;20449;-80
2022/03/12 01:01:53;;;;;;;2.87;2.57;;;2.60;49.60;;;;;;5062600;28;20381;-80
2022/03/12 01:04:38;;;;;;;3.20;2.77;;;2.50;48.30;;;;;;5062451;28;20465;-80
2022/03/12 01:07:23;;;;;;;2.87;2.57;;;2.40;47.20;;;;;;5062498;28;20394;-79
2022/03/12 01:10:07;;;;;;;2.17;1.97;;;2.40;47.80;;;;;;5061960;28;20457;-80
2022/03/12 01:12:52;;;;;;;5.17;2.53;;;2.50;48.40;;;;;;5062483;28;20389;-80
2022/03/12 01:15:37;;;;;;;3.10;2.77;;;2.50;49.60;;;;;;5062132;28;20424;-80
2022/03/12 01:18:23;;;;;;;3.20;2.90;;;2.40;48.30;;;;;;5062166;28;20397;-79
2022/03/12 01:21:11;;;;;;;4.17;2.73;;;2.30;48.00;;;;;;5062751;28;20486;-80
2022/03/12 01:23:56;;;;;;;4.30;3.43;;;2.40;46.90;;;;;;5062276;28;20448;-79
2022/03/12 01:26:41;;;;;;;6.50;3.47;;;2.70;49.80;;;;;;5062088;28;20473;-80
2022/03/12 01:29:25;;;;;;;2.77;2.50;;;2.80;50.30;;;;;;5062106;28;20524;-80
2022/03/12 01:32:10;;;;;;;3.80;2.63;;;2.80;49.60;;;;;;5061638;28;20740;-81
2022/03/12 01:34:55;;;;;;;2.30;2.10;;;2.70;49.20;;;;;;5060668;28;20455;-81
2022/03/12 01:37:39;;;;;;;3.40;2.50;;;2.60;50.20;;;;;;5063024;28;20480;-81
2022/03/12 01:40:24;;;;;;;4.10;3.83;;;2.40;49.80;;;;;;5062616;28;20394;-81
2022/03/12 01:43:09;;;;;;;4.03;2.80;;;2.30;49.10;;;;;;5063099;28;20397;-81
2022/03/12 01:45:54;;;;;;;5.30;3.47;;;2.30;49.50;;;;;;5062029;28;20740;-81
2022/03/12 01:48:46;;;;;;;6.43;2.40;;;2.30;48.60;;;;;;5062383;28;20401;-81
2022/03/12 01:51:30;;;;;;;6.63;2.77;;;2.40;50.00;;;;;;5061971;28;20398;-81
2022/03/12 01:54:20;;;;;;;4.60;3.53;;;2.50;51.20;;;;;;5062145;28;20441;-80
2022/03/12 01:57:05;;;;;;;6.50;2.20;;;2.40;49.40;;;;;;5060745;28;20456;-81
2022/03/12 01:59:51;;;;;;;13.43;4.00;;;2.50;51.50;;;;;;5061543;28;20389;-81
2022/03/12 02:02:35;;;;;;;2.33;2.23;;;2.30;50.00;;;;;;5060692;28;20891;-80
2022/03/12 02:05:21;;;;;;;3.00;2.80;;;2.30;51.50;;;;;;5061944;28;20794;-80
2022/03/12 02:08:06;;;;;;;4.50;2.30;;;2.40;50.30;;;;;;5061729;28;20390;-81
2022/03/12 02:10:58;;;;;;;3.30;3.00;;;2.40;48.60;;;;;;5061511;28;20405;-80
2022/03/12 02:13:43;;;;;;;4.80;2.93;;;2.40;49.90;;;;;;5062364;28;20430;-81
2022/03/12 02:16:29;;;;;;;3.83;2.50;;;2.50;50.70;;;;;;5061279;28;20397;-80
2022/03/12 02:19:14;;;;;;;3.33;2.60;;;2.40;53.30;;;;;;5062015;28;20725;-81
2022/03/12 02:22:04;;;;;;;3.50;3.20;;;2.50;54.60;;;;;;5061582;28;20390;-80
2022/03/12 02:24:48;;;;;;;4.33;2.70;;;2.40;54.40;;;;;;5062287;28;20467;-80
2022/03/12 02:27:32;;;;;;;2.60;2.40;;;2.30;54.70;;;;;;5061359;28;20433;-80
2022/03/12 02:30:18;;;;;;;2.47;2.27;;;2.30;55.90;;;;;;5061324;28;20409;-81
2022/03/12 02:33:04;;;;;;;2.93;2.70;;;2.30;55.20;;;;;;5061701;28;20394;-80
2022/03/12 02:35:50;;;;;;;5.37;3.73;;;2.30;55.10;;;;;;5062871;28;20454;-80
2022/03/12 02:38:35;;;;;;;4.70;3.00;;;2.10;55.70;;;;;;5063188;28;20719;-81
2022/03/12 02:41:22;;;;;;;3.87;3.57;;;2.10;58.20;;;;;;5064846;28;20398;-80
2022/03/12 02:44:10;;;;;;;2.70;2.50;;;2.20;56.50;;;;;;5066378;28;20517;-80
2022/03/12 02:47:15;;;;;;;5.33;3.20;;;2.20;57.10;;;;;;5066641;28;20902;-80
2022/03/12 02:50:03;;;;;;;4.17;2.60;;;2.10;55.10;;;;;;5066487;28;20401;-80
2022/03/12 02:52:48;;;;;;;6.60;3.50;;;2.00;51.90;;;;;;5064862;28;20789;-81
2022/03/12 02:55:35;;;;;;;2.80;2.60;;;2.00;52.60;;;;;;5065793;28;20470;-81
2022/03/12 02:58:20;;;;;;;2.27;1.80;;;2.10;54.90;;;;;;5067133;28;20946;-80
2022/03/12 03:01:05;;;;;;;3.97;2.80;;;2.00;54.20;;;;;;5067236;28;20472;-80
2022/03/12 03:03:50;;;;;;;4.03;2.53;;;2.00;52.40;;;;;;5073845;28;20483;-77
2022/03/12 03:06:35;;;;;;;7.73;4.17;;;1.90;52.30;;;;;;5075978;28;20378;-78
2022/03/12 03:09:20;;;;;;;5.80;3.63;;;1.90;53.30;;;;;;5075701;28;20417;-78
2022/03/12 03:12:09;;;;;;;3.90;3.57;;;2.10;54.50;;;;;;5075270;28;20417;-77
2022/03/12 03:14:53;;;;;;;3.20;2.60;;;2.50;52.80;;;;;;5074948;28;20385;-77
2022/03/12 03:17:40;;;;;;;4.07;3.03;;;2.70;55.70;;;;;;5072011;28;20440;-78
2022/03/12 03:20:24;;;;;;;2.83;2.30;;;2.70;59.40;;;;;;5070297;28;20386;-80
2022/03/12 03:23:10;;;;;;;2.23;2.13;;;2.50;57.60;;;;;;5065106;28;20911;-79
2022/03/12 03:25:55;;;;;;;4.03;3.30;;;2.40;58.80;;;;;;5065869;28;20851;-81
2022/03/12 03:28:41;;;;;;;2.83;2.50;;;2.50;62.10;;;;;;5066133;28;20394;-81
2022/03/12 03:31:26;;;;;;;10.93;3.60;;;2.70;65.90;;;;;;5065838;28;20429;-80
2022/03/12 03:34:11;;;;;;;4.40;2.77;;;3.00;62.90;;;;;;5066143;28;20442;-81
2022/03/12 03:36:55;;;;;;;6.13;3.43;;;3.00;62.50;;;;;;5065859;28;20398;-81
2022/03/12 03:39:43;;;;;;;4.43;3.63;;;3.00;59.30;;;;;;5066191;28;20406;-80
2022/03/12 03:42:27;;;;;;;4.40;2.87;;;3.00;59.40;;;;;;5066601;28;20944;-81
2022/03/12 03:45:21;;;;;;;6.47;3.17;;;2.90;60.30;;;;;;5067042;28;20449;-80
2022/03/12 03:48:12;;;;;;;4.30;3.70;;;3.00;60.70;;;;;;5067953;28;20382;-78
2022/03/12 03:50:57;;;;;;;3.07;2.83;;;3.10;60.10;;;;;;5074528;28;20410;-79
2022/03/12 03:53:42;;;;;;;7.33;3.00;;;3.30;61.40;;;;;;5074885;28;20373;-77
2022/03/12 03:56:26;;;;;;;3.30;2.57;;;3.30;61.70;;;;;;5075334;28;20544;-77
2022/03/12 03:59:11;;;;;;;4.03;3.40;;;3.10;65.50;;;;;;5076147;28;20390;-78
2022/03/12 04:01:56;;;;;;;5.60;2.93;;;3.00;65.90;;;;;;5075870;28;20421;-78
2022/03/12 04:04:42;;;;;;;5.10;2.67;;;2.90;65.80;;;;;;5075411;28;20804;-78
2022/03/12 04:07:27;;;;;;;4.63;3.70;;;3.00;63.10;;;;;;5074932;28;20381;-79
2022/03/12 04:10:11;;;;;;;3.40;3.10;;;3.10;65.40;;;;;;5072149;28;20414;-80
2022/03/12 04:12:57;;;;;;;4.73;4.17;;;3.20;66.60;;;;;;5063736;28;20873;-81
2022/03/12 04:15:42;;;;;;;3.37;3.07;;;3.20;67.70;;;;;;5063999;28;20414;-80
2022/03/12 04:18:27;;;;;;;3.87;3.57;;;3.10;64.50;;;;;;5062818;28;20382;-80
2022/03/12 04:21:13;;;;;;;8.07;4.70;;;3.00;61.00;;;;;;5063580;28;20391;-80
2022/03/12 04:23:58;;;;;;;4.37;3.60;;;3.00;62.10;;;;;;5065797;28;20480;-80
2022/03/12 04:26:42;;;;;;;5.77;3.90;;;2.80;62.40;;;;;;5067994;28;20386;-80
2022/03/12 04:29:27;;;;;;;15.30;3.70;;;2.70;67.20;;;;;;5068287;28;20421;-80
2022/03/12 04:32:12;;;;;;;6.20;3.03;;;2.60;68.70;;;;;;5067836;28;20386;-80
2022/03/12 04:34:56;;;;;;;5.07;2.70;;;2.70;66.60;;;;;;5067970;28;20743;-80
2022/03/12 04:37:41;;;;;;;5.53;4.47;;;2.70;67.20;;;;;;5068130;28;20406;-80
2022/03/12 04:40:27;;;;;;;5.33;3.10;;;2.80;65.60;;;;;;5068147;28;20456;-80
2022/03/12 04:43:12;;;;;;;6.93;4.13;;;2.90;62.70;;;;;;5065976;28;20503;-80
2022/03/12 04:45:59;;;;;;;9.57;5.47;;;2.90;63.70;;;;;;5058873;28;20422;-80
2022/03/12 04:48:43;;;;;;;4.53;3.27;;;2.70;67.60;;;;;;5061436;28;20429;-80
2022/03/12 04:51:29;;;;;;;6.10;5.03;;;2.70;66.60;;;;;;5063110;28;20390;-80
2022/03/12 04:54:14;;;;;;;10.00;3.50;;;2.90;67.20;;;;;;5063040;28;20381;-80
2022/03/12 04:56:58;;;;;;;7.00;4.50;;;2.90;67.20;;;;;;5062268;28;20479;-81
2022/03/12 04:59:45;;;;;;;6.00;3.60;;;3.00;69.20;;;;;;5042992;28;20450;-79
2022/03/12 05:02:29;;;;;;;3.43;2.77;;;3.00;66.40;;;;;;5055767;28;20461;-80
2022/03/12 05:05:15;;;;;;;9.20;3.90;;;2.90;66.60;;;;;;5041885;28;20574;-82
2022/03/12 05:07:59;;;;;;;6.50;3.63;;;2.80;65.90;;;;;;5043027;28;20395;-81
2022/03/12 05:10:49;;;;;;;5.93;4.13;;;2.70;68.20;;;;;;5042745;28;20375;-80
2022/03/12 05:13:34;;;;;;;7.00;4.57;;;2.70;68.40;;;;;;5042538;28;20391;-80
2022/03/12 05:16:19;;;;;;;8.50;3.27;;;2.60;73.60;;;;;;5042388;28;20406;-80
2022/03/12 05:19:05;;;;;;;7.47;3.80;;;2.70;72.90;;;;;;5041325;28;20441;-81
2022/03/12 05:21:50;;;;;;;4.80;4.40;;;2.70;75.20;;;;;;5042596;28;20390;-80
2022/03/12 05:24:36;;;;;;;7.90;4.13;;;2.80;73.70;;;;;;5041401;28;20574;-79
2022/03/12 05:27:20;;;;;;;5.20;3.60;;;2.90;72.60;;;;;;5042156;28;20428;-80
2022/03/12 05:30:05;;;;;;;6.60;4.63;;;2.80;75.20;;;;;;5042758;28;20483;-80
2022/03/12 05:32:51;;;;;;;3.53;3.23;;;2.60;75.50;;;;;;5043126;28;20421;-80
2022/03/12 05:35:40;;;;;;;6.13;4.10;;;2.60;78.60;;;;;;5042968;28;20453;-80
2022/03/12 05:38:27;;;;;;;6.10;3.70;;;2.70;73.70;;;;;;5041978;28;20438;-81
2022/03/12 05:41:12;;;;;;;11.60;4.43;;;2.90;77.00;;;;;;5026551;28;20402;-80
2022/03/12 05:43:57;;;;;;;4.53;3.80;;;3.00;77.90;;;;;;5041774;28;20457;-80
2022/03/12 05:46:42;;;;;;;5.33;4.30;;;3.00;76.00;;;;;;5042124;28;20383;-80
2022/03/12 05:49:30;;;;;;;4.70;3.63;;;2.90;75.70;;;;;;5043115;28;20426;-80
2022/03/12 05:52:15;;;;;;;4.53;3.83;;;2.90;77.50;;;;;;5042982;28;20445;-80
2022/03/12 05:55:00;;;;;;;6.73;4.23;;;2.90;80.00;;;;;;5043768;28;20942;-82
2022/03/12 05:57:45;;;;;;;5.47;3.83;;;2.90;76.50;;;;;;5042958;28;20407;-80
2022/03/12 06:00:32;;;;;;;8.07;3.70;;;2.90;77.10;;;;;;5044203;28;20445;-79
2022/03/12 06:03:16;;;;;;;4.40;4.03;;;2.90;79.70;;;;;;5052565;28;20473;-78
2022/03/12 06:06:01;;;;;;;6.90;4.27;;;2.90;79.20;;;;;;5043407;28;20468;-80
2022/03/12 06:08:46;;;;;;;4.87;3.10;;;2.90;81.70;;;;;;5042999;28;20405;-80
2022/03/12 06:11:32;;;;;;;6.17;4.73;;;2.90;77.10;;;;;;5044154;28;20455;-79
2022/03/12 06:14:17;;;;;;;5.10;4.60;;;2.90;81.10;;;;;;5043036;28;20720;-80
2022/03/12 06:17:02;;;;;;;11.57;3.20;;;2.90;74.20;;;;;;5040503;28;20452;-80
2022/03/12 06:19:46;;;;;;;4.90;3.57;;;3.00;74.50;;;;;;5042260;28;20387;-80
2022/03/12 06:22:31;;;;;;;4.77;3.50;;;3.10;75.00;;;;;;5042102;28;20406;-80
2022/03/12 06:25:17;;;;;;;4.97;3.77;;;3.20;75.50;;;;;;5042482;28;20458;-81
2022/03/12 06:28:03;;;;;;;4.40;3.80;;;3.00;78.50;;;;;;5042443;28;20734;-80
2022/03/12 06:30:49;;;;;;;7.07;3.37;;;3.00;73.80;;;;;;5041426;28;20387;-80
2022/03/12 06:33:34;;;;;;;19.63;3.33;;;3.10;76.00;;;;;;5040872;28;20382;-81
2022/03/12 06:36:19;;;;;;;5.27;2.80;;;3.10;77.60;;;;;;5040485;28;20406;-81
2022/03/12 06:39:05;;;;;;;4.93;4.30;;;3.20;77.60;;;;;;5042562;28;20429;-80
2022/03/12 06:41:51;;;;;;;4.90;3.53;;;3.10;84.70;;;;;;5043286;28;20394;-82
2022/03/12 06:44:37;;;;;;;6.40;3.50;;;3.10;72.40;;;;;;5044109;28;20492;-79
2022/03/12 06:47:31;;;;;;;5.03;3.80;;;3.30;78.40;;;;;;5041629;28;20386;-78
2022/03/12 06:50:19;;;;;;;4.80;4.20;;;3.50;75.00;;;;;;5050602;28;20383;-79
2022/03/12 06:53:04;;;;;;;6.20;3.67;;;3.50;71.60;;;;;;5051444;28;20403;-78
2022/03/12 06:55:49;;;;;;;3.87;3.33;;;3.50;71.40;;;;;;5050254;28;20422;-78
2022/03/12 06:58:34;;;;;;;3.60;3.30;;;3.70;70.70;;;;;;5043110;28;20390;-80
2022/03/12 07:01:19;;;;;;;5.83;4.40;;;3.70;67.90;;;;;;5042432;28;20395;-80
2022/03/12 07:04:03;;;;;;;10.00;4.00;;;3.50;70.70;;;;;;5042156;28;20617;-82
2022/03/12 07:07:08;;;;;;;4.20;3.80;;;3.50;73.10;;;;;;5042683;28;20467;-82
2022/03/12 07:09:53;;;;;;;5.83;4.47;;;3.40;77.00;;;;;;5020284;28;20970;-80
2022/03/12 07:12:40;;;;;;;11.50;4.27;;;3.40;72.10;;;;;;5007024;28;20411;-80
2022/03/12 07:15:26;;;;;;;4.67;4.23;;;3.50;73.30;;;;;;5006490;28;20394;-82
2022/03/12 07:18:11;;;;;;;6.10;3.73;;;3.40;73.40;;;;;;5019432;28;20416;-80
2022/03/12 07:20:56;;;;;;;9.10;3.30;;;3.60;75.90;;;;;;5020899;28;20404;-81
2022/03/12 07:23:41;;;;;;;10.03;3.83;;;3.70;74.00;;;;;;5036813;28;20453;-79
2022/03/12 07:26:26;;;;;;;3.97;3.60;;;3.90;68.90;;;;;;5040577;28;20486;-80
2022/03/12 07:29:12;;;;;;;3.67;2.53;;;3.90;75.90;;;;;;5043043;28;20395;-81
2022/03/12 07:31:56;;;;;;;2.77;2.20;;;3.70;66.10;;;;;;5043700;28;20396;-80
2022/03/12 07:34:40;;;;;;;6.83;4.23;;;3.00;55.00;;;;;;5029682;28;20398;-80
2022/03/12 07:37:25;;;;;;;6.70;4.37;;;3.00;55.30;;;;;;5042581;28;20428;-80
2022/03/12 07:40:11;;;;;;;4.67;2.40;;;3.30;56.60;;;;;;5036619;28;20397;-83
2022/03/12 07:42:56;;;;;;;2.80;2.60;;;3.60;58.00;;;;;;5065502;28;20405;-80
2022/03/12 07:45:40;;;;;;;2.57;2.37;;;3.30;52.80;;;;;;5062889;28;20445;-80
2022/03/12 07:48:25;;;;;;;4.10;3.10;;;3.20;52.80;;;;;;5063833;28;20394;-80
2022/03/12 07:51:09;;;;;;;5.80;2.77;;;3.30;52.90;;;;;;5064481;28;20433;-79
2022/03/12 07:53:54;;;;;;;4.20;2.47;;;3.40;52.80;;;;;;5065675;28;20430;-79
2022/03/12 07:56:39;;;;;;;3.00;2.50;;;3.40;50.90;;;;;;5064990;28;20386;-82
2022/03/12 07:59:26;;;;;;;5.10;3.17;;;3.50;52.20;;;;;;5064204;28;20474;-79
2022/03/12 08:02:11;;;;;;;4.97;4.03;;;3.40;50.60;;;;;;5064066;28;20468;-81
2022/03/12 08:04:55;;;;;;;2.70;2.50;;;3.70;53.10;;;;;;5063893;28;20495;-81
2022/03/12 08:07:40;;;;;;;3.00;2.53;;;3.70;51.40;;;;;;5062600;28;20428;-81
2022/03/12 08:10:25;;;;;;;4.40;2.70;;;3.90;51.20;;;;;;5062661;28;20451;-81
2022/03/12 08:13:09;;;;;;;3.00;2.80;;;3.90;50.40;;;;;;5064042;28;20492;-80
2022/03/12 08:15:54;;;;;;;3.50;3.10;;;4.20;49.80;;;;;;5063359;28;20410;-80
2022/03/12 08:18:59;;;;;;;2.63;2.20;;;4.20;50.80;;;;;;5041241;28;20793;-80
2022/03/12 08:21:44;;;;;;;3.90;2.57;;;4.20;49.30;;;;;;5042421;28;20446;-81
2022/03/12 08:24:29;;;;;;;3.50;2.80;;;4.40;48.60;;;;;;5028671;28;20482;-79
2022/03/12 08:27:15;;;;;;;5.00;3.23;;;4.40;48.10;;;;;;5041316;28;20411;-82
2022/03/12 08:29:59;;;;;;;4.00;3.33;;;4.40;48.00;;;;;;5041269;28;20817;-81
2022/03/12 08:32:43;;;;;;;4.73;3.90;;;4.50;48.00;;;;;;5041395;28;20418;-81
2022/03/12 08:35:28;;;;;;;4.40;2.33;;;5.00;53.00;;;;;;5040987;28;20406;-82
2022/03/12 08:38:12;;;;;;;3.53;2.80;;;4.70;47.70;;;;;;5040598;28;20931;-81
2022/03/12 08:40:58;;;;;;;2.47;2.27;;;5.20;46.70;;;;;;5041012;28;20838;-81
2022/03/12 08:43:42;;;;;;;3.83;2.63;;;5.70;47.30;;;;;;5041629;28;20478;-80
2022/03/12 08:46:27;;;;;;;3.20;2.53;;;5.40;47.20;;;;;;5044393;28;20415;-80
2022/03/12 08:49:12;;;;;;;4.20;3.07;;;5.70;48.20;;;;;;5033573;28;20440;-81
2022/03/12 08:51:58;;;;;;;6.03;2.50;;;5.60;46.20;;;;;;5062732;28;20784;-81
2022/03/12 08:54:43;;;;;;;9.93;3.00;;;5.50;45.70;;;;;;5061645;28;20460;-79
2022/03/12 08:57:27;;;;;;;5.63;3.77;;;6.10;46.20;;;;;;5066400;28;20382;-80
2022/03/12 09:00:15;;;;;;;4.47;3.30;;;6.80;45.80;;;;;;5064794;28;20580;-80
2022/03/12 09:03:00;;;;;;;4.70;2.63;;;6.20;45.20;;;;;;5062366;28;20453;-80
2022/03/12 09:05:44;;;;;;;4.40;3.27;;;6.60;45.30;;;;;;5062663;28;20441;-80
2022/03/12 09:08:29;;;;;;;3.63;3.30;;;6.40;45.60;;;;;;5063273;28;20489;-81
2022/03/12 09:11:17;;;;;;;4.17;2.57;;;6.90;44.70;;;;;;5051908;28;20433;-80
2022/03/12 09:14:02;;;;;;;4.93;2.63;;;7.00;45.00;;;;;;5068462;28;20385;-79
2022/03/12 09:16:48;;;;;;;2.80;2.60;;;6.70;42.30;;;;;;5073548;28;20420;-79
2022/03/12 09:19:33;;;;;;;4.10;2.93;;;6.70;43.20;;;;;;5066418;28;20402;-79
2022/03/12 09:22:18;;;;;;;2.73;2.53;;;7.00;43.70;;;;;;5068027;28;20393;-80
2022/03/12 09:25:03;;;;;;;2.97;2.77;;;7.20;42.70;;;;;;5071721;28;20580;-80
2022/03/12 09:27:48;;;;;;;6.87;4.07;;;8.00;43.50;;;;;;5069587;28;20390;-80
2022/03/12 09:30:35;;;;;;;3.10;2.83;;;8.80;41.90;;;;;;5068187;28;20398;-80
2022/03/12 09:33:22;;;;;;;4.13;3.10;;;9.60;42.20;;;;;;5071779;28;20413;-80
2022/03/12 09:36:16;;;;;;;4.73;3.60;;;10.90;39.20;;;;;;5048640;28;20405;-81
2022/03/12 09:39:01;;;;;;;5.60;3.93;;;12.90;40.40;;;;;;5064393;28;20390;-79
2022/03/12 09:41:47;;;;;;;4.23;3.07;;;13.40;39.80;;;;;;5067761;28;20401;-78
2022/03/12 09:44:32;;;;;;;11.70;3.67;;;10.90;36.90;;;;;;5068797;28;20445;-80
2022/03/12 09:47:18;;;;;;;4.40;3.20;;;11.40;37.70;;;;;;5069919;28;20382;-81
2022/03/12 09:50:08;;;;;;;3.50;3.07;;;11.20;37.30;;;;;;5070088;28;20397;-80
2022/03/12 09:52:53;;;;;;;3.77;3.43;;;12.10;39.00;;;;;;5068179;28;20413;-82
2022/03/12 09:55:39;;;;;;;3.60;3.30;;;11.00;37.80;;;;;;5072267;28;20441;-79
2022/03/12 09:58:23;;;;;;;3.47;2.83;;;11.50;39.00;;;;;;5074250;28;20382;-78
2022/03/12 10:01:10;;;;;;;9.50;3.33;;;10.20;36.50;;;;;;5072210;28;20405;-81
2022/03/12 10:03:55;;;;;;;2.97;2.73;;;10.90;37.60;;;;;;5068158;28;20548;-82
2022/03/12 10:06:44;;;;;;;5.40;3.37;;;10.30;36.50;;;;;;5070438;28;20389;-79
2022/03/12 10:09:28;;;;;;;4.13;3.13;;;10.50;37.30;;;;;;5073025;28;20382;-79
2022/03/12 10:12:14;;;;;;;5.30;3.60;;;10.10;37.00;;;;;;5068326;28;20386;-81
2022/03/12 10:14:58;;;;;;;5.40;3.37;;;10.20;36.70;;;;;;5068048;28;20390;-81
2022/03/12 10:17:46;;;;;;;3.40;3.10;;;10.10;37.90;;;;;;5069343;28;20401;-81
2022/03/12 10:20:31;;;;;;;7.43;3.27;;;10.10;37.60;;;;;;5068088;28;20409;-81
2022/03/12 10:23:15;;;;;;;5.97;3.97;;;10.40;37.80;;;;;;5069917;28;20421;-81
2022/03/12 10:26:00;;;;;;;8.60;4.40;;;9.90;37.10;;;;;;5068541;28;20478;-80
2022/03/12 10:28:45;;;;;;;7.63;3.67;;;10.10;37.10;;;;;;5068332;28;20394;-81
2022/03/12 10:31:30;;;;;;;4.67;3.97;;;11.50;37.80;;;;;;5068800;28;20393;-82
2022/03/12 10:34:22;;;;;;;5.07;4.33;;;11.20;36.80;;;;;;5068477;28;20390;-81
2022/03/12 10:37:10;;;;;;;6.60;4.27;;;10.50;35.70;;;;;;5068274;28;20370;-81
2022/03/12 10:40:07;;;;;;;5.63;4.40;;;11.80;37.60;;;;;;5081201;28;20437;-80
2022/03/12 10:42:56;;;;;;;3.53;3.23;;;11.40;36.80;;;;;;5068842;28;20429;-82
2022/03/12 10:45:43;;;;;;;6.17;4.87;;;10.70;36.10;;;;;;5069503;28;20449;-81
2022/03/12 10:48:37;;;;;;;4.93;3.77;;;10.70;36.10;;;;;;5053907;28;20398;-82
2022/03/12 10:51:25;;;;;;;3.90;3.37;;;10.80;36.60;;;;;;5068323;28;20474;-81
2022/03/12 10:54:15;;;;;;;4.93;4.43;;;11.10;36.10;;;;;;5068488;28;20447;-78
2022/03/12 10:57:00;;;;;;;4.37;3.93;;;11.80;37.50;;;;;;5062428;28;20394;-81
2022/03/12 10:59:45;;;;;;;7.33;4.50;;;12.00;36.20;;;;;;5057477;28;20409;-82
2022/03/12 11:02:29;;;;;;;4.40;4.00;;;12.80;35.30;;;;;;5046127;28;20537;-82
2022/03/12 11:05:14;;;;;;;6.57;4.20;;;12.40;36.10;;;;;;5048289;28;20445;-82
2022/03/12 11:08:09;;;;;;;4.63;4.23;;;12.50;35.60;;;;;;5048016;28;20398;-82
2022/03/12 11:11:00;;;;;;;3.80;3.60;;;12.80;36.30;;;;;;5062260;28;20529;-81
2022/03/12 11:13:47;;;;;;;5.00;4.20;;;13.00;34.90;;;;;;5062707;28;20394;-82
2022/03/12 11:16:33;;;;;;;7.60;5.30;;;12.10;35.00;;;;;;5060876;28;20429;-81
2022/03/12 11:19:37;;;;;;;6.43;5.20;;;12.00;34.80;;;;;;5062369;28;20444;-81
2022/03/12 11:22:21;;;;;;;5.90;4.77;;;12.50;36.50;;;;;;5064039;28;20390;-82
2022/03/12 11:25:11;;;;;;;4.57;4.17;;;13.10;37.00;;;;;;5064536;28;20483;-82
2022/03/12 11:27:59;;;;;;;7.13;5.40;;;12.90;34.60;;;;;;5062893;28;20390;-81
2022/03/12 11:30:45;;;;;;;5.00;4.17;;;12.60;34.50;;;;;;5062044;28;20441;-80
2022/03/12 11:33:29;;;;;;;6.87;4.63;;;14.20;34.20;;;;;;5061898;28;20389;-81
2022/03/12 11:36:15;;;;;;;5.27;4.77;;;13.50;34.10;;;;;;5061008;28;20448;-80
2022/03/12 11:38:59;;;;;;;6.53;5.00;;;14.00;34.40;;;;;;5061387;28;20409;-81
2022/03/12 11:42:08;;;;;;;4.70;4.30;;;12.90;33.40;;;;;;5061304;28;20517;-82
2022/03/12 11:44:54;;;;;;;6.50;5.07;;;15.10;34.80;;;;;;5063607;28;20445;-82
2022/03/12 11:47:40;;;;;;;8.40;5.93;;;14.40;34.00;;;;;;5047448;28;20410;-82
2022/03/12 11:50:29;;;;;;;5.00;4.40;;;14.80;33.50;;;;;;5060989;28;20459;-80
2022/03/12 11:53:17;;;;;;;6.10;5.20;;;14.00;33.30;;;;;;5061118;28;20398;-82
2022/03/12 11:56:02;;;;;;;7.23;5.07;;;15.30;32.70;;;;;;5062534;28;20422;-82
2022/03/12 11:58:47;;;;;;;5.90;5.30;;;14.50;32.40;;;;;;5062529;28;20839;-82
2022/03/12 12:01:36;;;;;;;4.67;4.10;;;15.00;33.70;;;;;;5061358;28;20390;-79
2022/03/12 12:04:20;;;;;;;6.60;4.60;;;14.70;32.70;;;;;;5059555;28;20469;-82
2022/03/12 12:07:05;;;;;;;5.47;4.67;;;14.70;32.60;;;;;;5060503;28;20412;-83
2022/03/12 12:09:49;;;;;;;7.17;5.57;;;15.30;32.50;;;;;;5062593;28;20501;-81
2022/03/12 12:12:34;;;;;;;5.43;4.67;;;14.70;31.60;;;;;;5062553;28;20413;-82
2022/03/12 12:15:25;;;;;;;5.10;4.60;;;15.20;32.60;;;;;;5061149;28;20425;-81
2022/03/12 12:18:12;;;;;;;6.37;4.70;;;16.70;34.50;;;;;;5063094;28;20933;-82
2022/03/12 12:20:57;;;;;;;6.07;4.77;;;15.80;31.80;;;;;;5061173;28;20444;-80
2022/03/12 12:23:43;;;;;;;7.80;5.50;;;15.80;33.20;;;;;;5062223;28;20386;-80
2022/03/12 12:26:30;;;;;;;9.43;4.30;;;17.70;32.50;;;;;;5044608;28;20425;-79
2022/03/12 12:29:33;;;;;;;5.73;5.10;;;16.40;31.40;;;;;;5060566;28;20386;-82
2022/03/12 12:32:23;;;;;;;5.43;4.40;;;16.30;31.60;;;;;;5062107;28;20389;-82
2022/03/12 12:35:14;;;;;;;6.30;4.53;;;16.00;33.00;;;;;;5064089;28;20763;-81
2022/03/12 12:38:04;;;;;;;7.40;4.70;;;16.50;31.90;;;;;;5050987;28;20453;-82
2022/03/12 12:40:51;;;;;;;6.13;4.77;;;18.00;32.00;;;;;;5049255;28;20931;-82
2022/03/12 12:43:42;;;;;;;7.93;5.90;;;17.20;31.20;;;;;;5062564;28;20886;-80
2022/03/12 12:46:27;;;;;;;5.83;5.27;;;15.10;31.80;;;;;;5047555;28;20427;-81
2022/03/12 12:49:14;;;;;;;5.10;4.70;;;15.10;31.70;;;;;;5062123;28;20433;-82
2022/03/12 12:51:58;;;;;;;6.63;5.93;;;16.30;32.60;;;;;;5049476;28;20433;-83
2022/03/12 12:54:56;;;;;;;5.10;4.60;;;16.30;32.00;;;;;;5062539;28;20513;-81
2022/03/12 12:57:48;;;;;;;5.53;5.03;;;16.20;31.60;;;;;;5062694;28;20405;-81
2022/03/12 13:00:37;;;;;;;6.90;6.00;;;17.10;31.90;;;;;;5049387;28;20911;-83
2022/03/12 13:03:23;;;;;;;6.80;6.20;;;17.00;32.30;;;;;;5066655;28;20899;-82
2022/03/12 13:06:07;;;;;;;6.60;5.33;;;16.80;31.80;;;;;;5069771;28;20394;-79
2022/03/12 13:08:52;;;;;;;5.70;5.20;;;15.20;31.40;;;;;;5047505;28;20432;-83
2022/03/12 13:11:48;;;;;;;6.37;5.20;;;16.40;33.30;;;;;;5063359;28;20394;-82
2022/03/12 13:14:44;;;;;;;5.67;5.17;;;16.00;31.70;;;;;;5048253;28;20786;-82
2022/03/12 13:17:30;;;;;;;6.13;5.53;;;16.40;32.70;;;;;;5062743;28;20382;-81
2022/03/12 13:20:36;;;;;;;5.77;5.00;;;17.80;33.10;;;;;;5046580;28;20390;-80
2022/03/12 13:23:30;;;;;;;6.73;6.17;;;16.30;31.10;;;;;;5060757;28;20521;-82
2022/03/12 13:26:18;;;;;;;7.97;5.73;;;16.10;32.10;;;;;;5063590;28;20402;-83
2022/03/12 13:29:08;;;;;;;7.10;5.50;;;17.10;32.40;;;;;;5069592;28;20590;-82
2022/03/12 13:31:54;;;;;;;9.50;5.90;;;17.80;32.00;;;;;;5074543;28;20440;-82
2022/03/12 13:34:39;;;;;;;5.93;5.43;;;17.10;31.20;;;;;;5072602;28;20413;-82
2022/03/12 13:37:24;;;;;;;6.13;5.50;;;15.80;32.30;;;;;;5073737;28;20525;-81
2022/03/12 13:40:13;;;;;;;6.60;5.77;;;15.20;32.80;;;;;;5074494;28;20481;-81
2022/03/12 13:42:59;;;;;;;5.73;5.00;;;15.40;32.70;;;;;;5073709;28;20378;-82
2022/03/12 13:45:44;;;;;;;5.90;5.30;;;15.20;33.30;;;;;;5071034;28;20445;-82
2022/03/12 13:48:30;;;;;;;7.17;5.73;;;15.50;33.70;;;;;;5065044;28;20683;-81
2022/03/12 13:51:22;;;;;;;7.97;5.50;;;15.60;33.00;;;;;;5062642;28;20414;-82
2022/03/12 13:54:07;;;;;;;6.23;5.63;;;15.80;32.10;;;;;;5063462;28;20494;-79
2022/03/12 13:56:52;;;;;;;5.93;5.43;;;15.40;32.80;;;;;;5069877;28;20409;-80
2022/03/12 13:59:37;;;;;;;6.50;5.53;;;15.20;33.30;;;;;;5064992;28;20382;-80
2022/03/12 14:02:23;;;;;;;11.10;6.63;;;16.60;33.40;;;;;;5063847;28;20479;-81
2022/03/12 14:05:07;;;;;;;7.63;6.17;;;16.00;32.40;;;;;;5064176;28;20449;-81
2022/03/12 14:07:55;;;;;;;5.70;5.10;;;17.30;32.30;;;;;;5064411;28;20400;-83
2022/03/12 14:10:45;;;;;;;6.30;4.90;;;17.20;31.30;;;;;;5062857;28;20389;-82
2022/03/12 14:13:29;;;;;;;10.27;5.97;;;18.10;31.70;;;;;;5063850;28;20470;-81
2022/03/12 14:16:14;;;;;;;6.00;5.33;;;17.20;31.20;;;;;;5065310;28;20505;-82
2022/03/12 14:19:01;;;;;;;5.10;4.60;;;17.00;31.00;;;;;;5069044;28;20401;-82
2022/03/12 14:21:48;;;;;;;6.97;5.10;;;18.20;32.00;;;;;;5071932;28;20402;-82
2022/03/12 14:24:36;;;;;;;6.10;5.60;;;17.30;31.40;;;;;;5071905;28;20441;-81
2022/03/12 14:27:27;;;;;;;6.97;6.37;;;17.20;32.30;;;;;;5068999;28;20458;-83
2022/03/12 14:30:12;;;;;;;6.30;5.80;;;17.30;32.40;;;;;;5048301;28;20448;-82
2022/03/12 14:32:57;;;;;;;7.03;5.97;;;17.60;32.70;;;;;;5046522;28;20381;-83